sensor_id;sensor_type;location;lat;lon;timestamp;pressure;altitude;pressure_sealevel;temperature;humidity
84758;BME280;74981;52.476;16.656;2023-12-20T00:00:19;99793.94;;;6.98;85.55
84758;BME280;74981;52.476;16.656;2023-12-20T00:02:46;99790.39;;;6.96;85.52
84758;BME280;74981;52.476;16.656;2023-12-20T00:05:13;99781.14;;;6.93;85.56
84758;BME280;74981;52.476;16.656;2023-12-20T00:07:40;99782.20;;;6.91;85.72
84758;BME280;74981;52.476;16.656;2023-12-20T00:10:08;99778.16;;;6.91;85.65
84758;BME280;74981;52.476;16.656;2023-12-20T00:12:35;99776.95;;;6.93;85.58
84758;BME280;74981;52.476;16.656;2023-12-20T00:15:02;99775.13;;;6.93;85.64
84758;BME280;74981;52.476;16.656;2023-12-20T00:17:29;99774.34;;;6.92;85.63
84758;BME280;74981;52.476;16.656;2023-12-20T00:19:56;99767.08;;;6.91;85.65
84758;BME280;74981;52.476;16.656;2023-12-20T00:22:22;99768.02;;;6.91;85.77
84758;BME280;74981;52.476;16.656;2023-12-20T00:24:49;99763.64;;;6.90;85.68
84758;BME280;74981;52.476;16.656;2023-12-20T00:27:16;99766.17;;;6.91;85.60
84758;BME280;74981;52.476;16.656;2023-12-20T00:29:43;99763.30;;;6.92;85.57
84758;BME280;74981;52.476;16.656;2023-12-20T00:32:09;99761.73;;;6.91;85.76
84758;BME280;74981;52.476;16.656;2023-12-20T00:34:36;99767.27;;;6.89;85.70
84758;BME280;74981;52.476;16.656;2023-12-20T00:37:03;99766.58;;;6.87;85.78
84758;BME280;74981;52.476;16.656;2023-12-20T00:39:30;99764.19;;;6.88;85.68
84758;BME280;74981;52.476;16.656;2023-12-20T00:41:56;99765.27;;;6.90;85.71
84758;BME280;74981;52.476;16.656;2023-12-20T00:44:23;99762.21;;;6.90;85.70
84758;BME280;74981;52.476;16.656;2023-12-20T00:46:50;99759.31;;;6.91;85.70
84758;BME280;74981;52.476;16.656;2023-12-20T00:49:17;99760.14;;;6.92;85.66
84758;BME280;74981;52.476;16.656;2023-12-20T00:51:43;99760.86;;;6.91;85.68
84758;BME280;74981;52.476;16.656;2023-12-20T00:54:10;99755.49;;;6.92;85.66
84758;BME280;74981;52.476;16.656;2023-12-20T00:56:37;99756.38;;;6.94;85.58
84758;BME280;74981;52.476;16.656;2023-12-20T00:59:04;99755.46;;;6.94;85.56
84758;BME280;74981;52.476;16.656;2023-12-20T01:01:31;99752.20;;;6.95;85.81
84758;BME280;74981;52.476;16.656;2023-12-20T01:03:57;99751.92;;;6.94;85.67
84758;BME280;74981;52.476;16.656;2023-12-20T01:06:24;99749.77;;;6.92;85.75
84758;BME280;74981;52.476;16.656;2023-12-20T01:08:51;99742.16;;;6.91;85.54
84758;BME280;74981;52.476;16.656;2023-12-20T01:11:18;99742.46;;;6.94;85.50
84758;BME280;74981;52.476;16.656;2023-12-20T01:13:44;99738.27;;;6.95;85.51
84758;BME280;74981;52.476;16.656;2023-12-20T01:16:12;99739.22;;;6.96;85.42
84758;BME280;74981;52.476;16.656;2023-12-20T01:18:38;99736.65;;;6.95;85.38
84758;BME280;74981;52.476;16.656;2023-12-20T01:21:05;99733.58;;;6.94;85.43
84758;BME280;74981;52.476;16.656;2023-12-20T01:23:32;99732.88;;;6.94;85.54
84758;BME280;74981;52.476;16.656;2023-12-20T01:25:59;99737.61;;;6.95;85.29
84758;BME280;74981;52.476;16.656;2023-12-20T01:28:26;99740.02;;;6.96;85.40
84758;BME280;74981;52.476;16.656;2023-12-20T01:30:53;99736.92;;;6.96;85.45
84758;BME280;74981;52.476;16.656;2023-12-20T01:33:19;99735.52;;;6.96;85.31
84758;BME280;74981;52.476;16.656;2023-12-20T01:35:46;99736.09;;;6.94;85.42
84758;BME280;74981;52.476;16.656;2023-12-20T01:38:13;99734.25;;;6.92;85.37
84758;BME280;74981;52.476;16.656;2023-12-20T01:40:39;99723.74;;;6.92;85.39
84758;BME280;74981;52.476;16.656;2023-12-20T01:43:08;99717.97;;;6.91;85.54
84758;BME280;74981;52.476;16.656;2023-12-20T01:45:35;99715.55;;;6.90;85.39
84758;BME280;74981;52.476;16.656;2023-12-20T01:48:02;99713.35;;;6.89;85.30
84758;BME280;74981;52.476;16.656;2023-12-20T01:50:32;99712.41;;;6.88;85.36
84758;BME280;74981;52.476;16.656;2023-12-20T01:53:03;99708.47;;;6.88;85.34
84758;BME280;74981;52.476;16.656;2023-12-20T01:55:32;99703.77;;;6.88;85.37
84758;BME280;74981;52.476;16.656;2023-12-20T01:58:01;99708.56;;;6.89;85.46
84758;BME280;74981;52.476;16.656;2023-12-20T02:00:29;99705.77;;;6.86;85.27
84758;BME280;74981;52.476;16.656;2023-12-20T02:02:58;99709.27;;;6.85;85.32
84758;BME280;74981;52.476;16.656;2023-12-20T02:05:27;99705.33;;;6.83;85.37
84758;BME280;74981;52.476;16.656;2023-12-20T02:07:54;99700.91;;;6.82;85.35
84758;BME280;74981;52.476;16.656;2023-12-20T02:10:21;99698.21;;;6.82;85.36
84758;BME280;74981;52.476;16.656;2023-12-20T02:12:48;99699.67;;;6.82;85.33
84758;BME280;74981;52.476;16.656;2023-12-20T02:15:15;99697.31;;;6.81;85.37
84758;BME280;74981;52.476;16.656;2023-12-20T02:17:41;99688.45;;;6.76;85.37
84758;BME280;74981;52.476;16.656;2023-12-20T02:20:09;99695.73;;;6.76;85.49
84758;BME280;74981;52.476;16.656;2023-12-20T02:22:37;99689.46;;;6.76;85.42
84758;BME280;74981;52.476;16.656;2023-12-20T02:25:04;99687.27;;;6.77;85.40
84758;BME280;74981;52.476;16.656;2023-12-20T02:27:31;99687.99;;;6.77;85.32
84758;BME280;74981;52.476;16.656;2023-12-20T02:29:58;99680.98;;;6.76;85.30
84758;BME280;74981;52.476;16.656;2023-12-20T02:32:25;99684.83;;;6.75;85.35
84758;BME280;74981;52.476;16.656;2023-12-20T02:34:53;99689.59;;;6.71;85.36
84758;BME280;74981;52.476;16.656;2023-12-20T02:37:19;99686.06;;;6.71;85.49
84758;BME280;74981;52.476;16.656;2023-12-20T02:39:46;99680.86;;;6.71;85.39
84758;BME280;74981;52.476;16.656;2023-12-20T02:42:13;99677.19;;;6.70;85.37
84758;BME280;74981;52.476;16.656;2023-12-20T02:44:40;99672.64;;;6.69;85.49
84758;BME280;74981;52.476;16.656;2023-12-20T02:47:07;99677.20;;;6.68;85.66
84758;BME280;74981;52.476;16.656;2023-12-20T02:49:34;99676.75;;;6.67;85.58
84758;BME280;74981;52.476;16.656;2023-12-20T02:52:00;99681.20;;;6.67;85.61
84758;BME280;74981;52.476;16.656;2023-12-20T02:54:27;99685.23;;;6.68;85.37
84758;BME280;74981;52.476;16.656;2023-12-20T02:56:54;99683.35;;;6.69;85.51
84758;BME280;74981;52.476;16.656;2023-12-20T02:59:21;99680.30;;;6.69;85.50
84758;BME280;74981;52.476;16.656;2023-12-20T03:01:48;99678.09;;;6.68;85.54
84758;BME280;74981;52.476;16.656;2023-12-20T03:04:14;99676.81;;;6.66;85.62
84758;BME280;74981;52.476;16.656;2023-12-20T03:06:41;99675.90;;;6.67;85.69
84758;BME280;74981;52.476;16.656;2023-12-20T03:09:08;99667.33;;;6.67;85.53
84758;BME280;74981;52.476;16.656;2023-12-20T03:11:35;99665.19;;;6.67;85.51
84758;BME280;74981;52.476;16.656;2023-12-20T03:14:02;99662.14;;;6.68;85.45
84758;BME280;74981;52.476;16.656;2023-12-20T03:16:28;99659.52;;;6.67;85.54
84758;BME280;74981;52.476;16.656;2023-12-20T03:18:55;99660.11;;;6.64;85.69
84758;BME280;74981;52.476;16.656;2023-12-20T03:21:22;99659.68;;;6.63;85.57
84758;BME280;74981;52.476;16.656;2023-12-20T03:23:49;99656.16;;;6.62;85.55
84758;BME280;74981;52.476;16.656;2023-12-20T03:26:16;99651.98;;;6.63;85.41
84758;BME280;74981;52.476;16.656;2023-12-20T03:28:43;99651.96;;;6.64;85.56
84758;BME280;74981;52.476;16.656;2023-12-20T03:31:10;99649.21;;;6.65;85.71
84758;BME280;74981;52.476;16.656;2023-12-20T03:33:37;99651.36;;;6.62;85.54
84758;BME280;74981;52.476;16.656;2023-12-20T03:36:06;99654.07;;;6.60;85.64
84758;BME280;74981;52.476;16.656;2023-12-20T03:38:33;99659.04;;;6.58;85.66
84758;BME280;74981;52.476;16.656;2023-12-20T03:40:59;99654.94;;;6.58;85.65
84758;BME280;74981;52.476;16.656;2023-12-20T03:43:26;99656.88;;;6.58;85.57
84758;BME280;74981;52.476;16.656;2023-12-20T03:45:53;99655.27;;;6.58;85.62
84758;BME280;74981;52.476;16.656;2023-12-20T03:48:20;99657.83;;;6.57;85.69
84758;BME280;74981;52.476;16.656;2023-12-20T03:50:47;99658.27;;;6.56;85.61
84758;BME280;74981;52.476;16.656;2023-12-20T03:53:13;99655.48;;;6.54;85.67
84758;BME280;74981;52.476;16.656;2023-12-20T03:55:40;99654.30;;;6.53;85.78
84758;BME280;74981;52.476;16.656;2023-12-20T03:58:07;99652.02;;;6.55;85.71
84758;BME280;74981;52.476;16.656;2023-12-20T04:00:34;99649.90;;;6.56;85.69
84758;BME280;74981;52.476;16.656;2023-12-20T04:03:00;99649.14;;;6.57;85.68
84758;BME280;74981;52.476;16.656;2023-12-20T04:05:27;99645.55;;;6.55;85.66
84758;BME280;74981;52.476;16.656;2023-12-20T04:07:54;99643.52;;;6.54;85.73
84758;BME280;74981;52.476;16.656;2023-12-20T04:10:21;99646.39;;;6.54;85.71
84758;BME280;74981;52.476;16.656;2023-12-20T04:12:48;99646.70;;;6.54;85.80
84758;BME280;74981;52.476;16.656;2023-12-20T04:15:15;99650.40;;;6.53;85.69
84758;BME280;74981;52.476;16.656;2023-12-20T04:17:41;99650.93;;;6.53;85.70
84758;BME280;74981;52.476;16.656;2023-12-20T04:20:10;99646.33;;;6.53;85.86
84758;BME280;74981;52.476;16.656;2023-12-20T04:22:37;99646.97;;;6.51;85.89
84758;BME280;74981;52.476;16.656;2023-12-20T04:25:04;99648.71;;;6.50;85.92
84758;BME280;74981;52.476;16.656;2023-12-20T04:27:31;99647.02;;;6.49;85.89
84758;BME280;74981;52.476;16.656;2023-12-20T04:29:58;99638.66;;;6.49;86.00
84758;BME280;74981;52.476;16.656;2023-12-20T04:32:25;99636.20;;;6.46;86.06
84758;BME280;74981;52.476;16.656;2023-12-20T04:34:51;99636.92;;;6.44;86.15
84758;BME280;74981;52.476;16.656;2023-12-20T04:37:18;99631.77;;;6.41;86.10
84758;BME280;74981;52.476;16.656;2023-12-20T04:39:45;99627.25;;;6.42;86.19
84758;BME280;74981;52.476;16.656;2023-12-20T04:42:12;99629.27;;;6.44;86.18
84758;BME280;74981;52.476;16.656;2023-12-20T04:44:38;99632.71;;;6.45;86.11
84758;BME280;74981;52.476;16.656;2023-12-20T04:47:05;99632.70;;;6.46;86.17
84758;BME280;74981;52.476;16.656;2023-12-20T04:49:32;99632.98;;;6.46;86.08
84758;BME280;74981;52.476;16.656;2023-12-20T04:51:59;99629.34;;;6.45;86.18
84758;BME280;74981;52.476;16.656;2023-12-20T04:54:25;99635.39;;;6.43;86.26
84758;BME280;74981;52.476;16.656;2023-12-20T04:56:52;99638.02;;;6.44;86.30
84758;BME280;74981;52.476;16.656;2023-12-20T04:59:19;99642.02;;;6.45;86.32
84758;BME280;74981;52.476;16.656;2023-12-20T05:01:46;99636.20;;;6.42;86.23
84758;BME280;74981;52.476;16.656;2023-12-20T05:04:13;99640.96;;;6.44;86.14
84758;BME280;74981;52.476;16.656;2023-12-20T05:06:39;99631.21;;;6.42;86.16
84758;BME280;74981;52.476;16.656;2023-12-20T05:09:06;99631.95;;;6.39;86.22
84758;BME280;74981;52.476;16.656;2023-12-20T05:11:33;99640.27;;;6.40;86.18
84758;BME280;74981;52.476;16.656;2023-12-20T05:14:00;99644.98;;;6.41;86.28
84758;BME280;74981;52.476;16.656;2023-12-20T05:16:27;99650.39;;;6.42;86.32
84758;BME280;74981;52.476;16.656;2023-12-20T05:18:54;99651.00;;;6.41;86.22
84758;BME280;74981;52.476;16.656;2023-12-20T05:21:20;99650.35;;;6.41;86.14
84758;BME280;74981;52.476;16.656;2023-12-20T05:23:47;99646.89;;;6.39;86.26
84758;BME280;74981;52.476;16.656;2023-12-20T05:26:14;99649.55;;;6.39;86.10
84758;BME280;74981;52.476;16.656;2023-12-20T05:28:41;99645.52;;;6.41;86.24
84758;BME280;74981;52.476;16.656;2023-12-20T05:31:08;99647.63;;;6.44;86.08
84758;BME280;74981;52.476;16.656;2023-12-20T05:33:35;99639.55;;;6.44;86.08
84758;BME280;74981;52.476;16.656;2023-12-20T05:36:02;99633.11;;;6.45;85.93
84758;BME280;74981;52.476;16.656;2023-12-20T05:38:28;99625.08;;;6.45;85.91
84758;BME280;74981;52.476;16.656;2023-12-20T05:40:55;99623.27;;;6.46;85.99
84758;BME280;74981;52.476;16.656;2023-12-20T05:43:22;99630.92;;;6.47;85.85
84758;BME280;74981;52.476;16.656;2023-12-20T05:45:49;99635.77;;;6.47;85.79
84758;BME280;74981;52.476;16.656;2023-12-20T05:48:16;99632.46;;;6.46;85.83
84758;BME280;74981;52.476;16.656;2023-12-20T05:50:42;99638.09;;;6.45;85.74
84758;BME280;74981;52.476;16.656;2023-12-20T05:53:09;99640.52;;;6.44;85.81
84758;BME280;74981;52.476;16.656;2023-12-20T05:55:36;99641.02;;;6.44;85.66
84758;BME280;74981;52.476;16.656;2023-12-20T05:58:03;99638.75;;;6.46;85.52
84758;BME280;74981;52.476;16.656;2023-12-20T06:00:30;99633.40;;;6.43;85.37
84758;BME280;74981;52.476;16.656;2023-12-20T06:02:57;99632.14;;;6.41;85.16
84758;BME280;74981;52.476;16.656;2023-12-20T06:05:24;99632.02;;;6.38;85.19
84758;BME280;74981;52.476;16.656;2023-12-20T06:07:51;99642.45;;;6.35;85.20
84758;BME280;74981;52.476;16.656;2023-12-20T06:10:18;99640.77;;;6.32;85.41
84758;BME280;74981;52.476;16.656;2023-12-20T06:12:45;99633.77;;;6.30;85.23
84758;BME280;74981;52.476;16.656;2023-12-20T06:15:12;99631.40;;;6.29;85.17
84758;BME280;74981;52.476;16.656;2023-12-20T06:17:39;99632.34;;;6.26;85.21
84758;BME280;74981;52.476;16.656;2023-12-20T06:20:08;99636.61;;;6.27;85.02
84758;BME280;74981;52.476;16.656;2023-12-20T06:22:35;99635.08;;;6.24;85.23
84758;BME280;74981;52.476;16.656;2023-12-20T06:25:03;99638.52;;;6.23;85.12
84758;BME280;74981;52.476;16.656;2023-12-20T06:27:30;99640.09;;;6.23;85.08
84758;BME280;74981;52.476;16.656;2023-12-20T06:29:57;99639.39;;;6.23;84.88
84758;BME280;74981;52.476;16.656;2023-12-20T06:32:24;99645.45;;;6.21;84.75
84758;BME280;74981;52.476;16.656;2023-12-20T06:34:51;99646.41;;;6.16;84.64
84758;BME280;74981;52.476;16.656;2023-12-20T06:37:17;99647.89;;;6.07;84.68
84758;BME280;74981;52.476;16.656;2023-12-20T06:39:44;99656.42;;;6.02;84.68
84758;BME280;74981;52.476;16.656;2023-12-20T06:42:11;99651.25;;;5.98;84.65
84758;BME280;74981;52.476;16.656;2023-12-20T06:44:38;99652.27;;;5.96;84.68
84758;BME280;74981;52.476;16.656;2023-12-20T06:47:05;99649.76;;;5.94;84.68
84758;BME280;74981;52.476;16.656;2023-12-20T06:49:32;99644.64;;;5.92;84.87
84758;BME280;74981;52.476;16.656;2023-12-20T06:51:58;99641.94;;;5.88;84.90
84758;BME280;74981;52.476;16.656;2023-12-20T06:54:25;99653.23;;;5.89;85.03
84758;BME280;74981;52.476;16.656;2023-12-20T06:56:52;99659.74;;;5.89;85.11
84758;BME280;74981;52.476;16.656;2023-12-20T06:59:19;99667.74;;;5.92;85.10
84758;BME280;74981;52.476;16.656;2023-12-20T07:01:48;99673.96;;;5.92;85.11
84758;BME280;74981;52.476;16.656;2023-12-20T07:04:16;99680.99;;;5.93;85.16
84758;BME280;74981;52.476;16.656;2023-12-20T07:06:43;99680.41;;;5.91;85.40
84758;BME280;74981;52.476;16.656;2023-12-20T07:09:10;99684.11;;;5.91;85.35
84758;BME280;74981;52.476;16.656;2023-12-20T07:11:36;99681.41;;;5.92;85.31
84758;BME280;74981;52.476;16.656;2023-12-20T07:14:03;99679.23;;;5.95;85.43
84758;BME280;74981;52.476;16.656;2023-12-20T07:16:30;99680.60;;;5.96;85.36
84758;BME280;74981;52.476;16.656;2023-12-20T07:18:57;99691.04;;;5.96;85.54
84758;BME280;74981;52.476;16.656;2023-12-20T07:21:23;99686.31;;;5.97;85.37
84758;BME280;74981;52.476;16.656;2023-12-20T07:23:50;99683.99;;;5.95;85.47
84758;BME280;74981;52.476;16.656;2023-12-20T07:26:18;99690.44;;;5.95;85.55
84758;BME280;74981;52.476;16.656;2023-12-20T07:28:45;99688.11;;;5.93;85.54
84758;BME280;74981;52.476;16.656;2023-12-20T07:31:12;99689.67;;;5.95;85.51
84758;BME280;74981;52.476;16.656;2023-12-20T07:33:39;99701.09;;;5.99;85.59
84758;BME280;74981;52.476;16.656;2023-12-20T07:36:07;99702.49;;;5.99;85.72
84758;BME280;74981;52.476;16.656;2023-12-20T07:38:34;99700.80;;;5.98;85.88
84758;BME280;74981;52.476;16.656;2023-12-20T07:41:00;99701.91;;;5.98;85.82
84758;BME280;74981;52.476;16.656;2023-12-20T07:43:27;99704.59;;;6.00;85.73
84758;BME280;74981;52.476;16.656;2023-12-20T07:45:54;99704.86;;;6.03;85.73
84758;BME280;74981;52.476;16.656;2023-12-20T07:48:21;99704.48;;;6.06;85.64
84758;BME280;74981;52.476;16.656;2023-12-20T07:50:47;99700.47;;;6.07;85.51
84758;BME280;74981;52.476;16.656;2023-12-20T07:53:14;99690.67;;;6.07;85.32
84758;BME280;74981;52.476;16.656;2023-12-20T07:55:41;99690.77;;;6.06;85.21
84758;BME280;74981;52.476;16.656;2023-12-20T07:58:08;99687.86;;;6.05;85.28
84758;BME280;74981;52.476;16.656;2023-12-20T08:00:35;99683.32;;;6.06;85.36
84758;BME280;74981;52.476;16.656;2023-12-20T08:03:01;99687.02;;;6.06;85.15
84758;BME280;74981;52.476;16.656;2023-12-20T08:05:28;99688.16;;;6.08;85.13
84758;BME280;74981;52.476;16.656;2023-12-20T08:07:55;99685.64;;;6.06;84.83
84758;BME280;74981;52.476;16.656;2023-12-20T08:10:22;99686.04;;;6.03;84.70
84758;BME280;74981;52.476;16.656;2023-12-20T08:12:48;99681.16;;;5.99;84.47
84758;BME280;74981;52.476;16.656;2023-12-20T08:15:15;99679.34;;;5.96;84.27
84758;BME280;74981;52.476;16.656;2023-12-20T08:17:42;99679.77;;;5.92;84.17
84758;BME280;74981;52.476;16.656;2023-12-20T08:20:10;99679.99;;;5.94;84.36
84758;BME280;74981;52.476;16.656;2023-12-20T08:22:37;99681.00;;;5.95;84.35
84758;BME280;74981;52.476;16.656;2023-12-20T08:25:05;99672.85;;;5.94;84.32
84758;BME280;74981;52.476;16.656;2023-12-20T08:27:32;99674.17;;;5.93;84.51
84758;BME280;74981;52.476;16.656;2023-12-20T08:29:59;99681.09;;;5.91;84.31
84758;BME280;74981;52.476;16.656;2023-12-20T08:32:27;99680.86;;;5.90;84.45
84758;BME280;74981;52.476;16.656;2023-12-20T08:34:53;99676.44;;;5.90;84.69
84758;BME280;74981;52.476;16.656;2023-12-20T08:37:20;99678.88;;;5.90;84.34
84758;BME280;74981;52.476;16.656;2023-12-20T08:39:47;99680.35;;;5.90;84.49
84758;BME280;74981;52.476;16.656;2023-12-20T08:42:14;99673.71;;;5.88;84.66
84758;BME280;74981;52.476;16.656;2023-12-20T08:44:41;99674.92;;;5.89;84.68
84758;BME280;74981;52.476;16.656;2023-12-20T08:47:08;99672.95;;;5.89;84.52
84758;BME280;74981;52.476;16.656;2023-12-20T08:49:34;99666.76;;;5.89;84.51
84758;BME280;74981;52.476;16.656;2023-12-20T08:52:01;99669.80;;;5.90;84.28
84758;BME280;74981;52.476;16.656;2023-12-20T08:54:28;99669.04;;;5.98;84.27
84758;BME280;74981;52.476;16.656;2023-12-20T08:56:55;99670.83;;;6.11;84.25
84758;BME280;74981;52.476;16.656;2023-12-20T08:59:22;99668.22;;;6.23;84.03
84758;BME280;74981;52.476;16.656;2023-12-20T09:01:49;99661.52;;;6.27;83.75
84758;BME280;74981;52.476;16.656;2023-12-20T09:04:16;99660.41;;;6.25;83.46
84758;BME280;74981;52.476;16.656;2023-12-20T09:06:42;99654.84;;;6.32;83.33
84758;BME280;74981;52.476;16.656;2023-12-20T09:09:09;99655.19;;;6.47;83.55
84758;BME280;74981;52.476;16.656;2023-12-20T09:11:36;99659.58;;;6.62;83.65
84758;BME280;74981;52.476;16.656;2023-12-20T09:14:03;99655.95;;;6.73;83.27
84758;BME280;74981;52.476;16.656;2023-12-20T09:16:29;99655.74;;;6.86;83.23
84758;BME280;74981;52.476;16.656;2023-12-20T09:18:56;99650.17;;;7.03;83.06
84758;BME280;74981;52.476;16.656;2023-12-20T09:21:23;99650.83;;;7.16;82.86
84758;BME280;74981;52.476;16.656;2023-12-20T09:23:50;99657.17;;;7.37;82.89
84758;BME280;74981;52.476;16.656;2023-12-20T09:26:16;99652.92;;;7.55;82.38
84758;BME280;74981;52.476;16.656;2023-12-20T09:28:43;99653.16;;;7.76;81.89
84758;BME280;74981;52.476;16.656;2023-12-20T09:31:10;99656.23;;;7.89;82.14
84758;BME280;74981;52.476;16.656;2023-12-20T09:33:37;99654.42;;;7.97;82.13
84758;BME280;74981;52.476;16.656;2023-12-20T09:36:04;99655.18;;;7.95;81.51
84758;BME280;74981;52.476;16.656;2023-12-20T09:38:31;99656.20;;;7.84;80.91
84758;BME280;74981;52.476;16.656;2023-12-20T09:40:58;99654.08;;;7.71;80.72
84758;BME280;74981;52.476;16.656;2023-12-20T09:43:25;99653.74;;;7.59;80.43
84758;BME280;74981;52.476;16.656;2023-12-20T09:45:53;99651.95;;;7.48;80.56
84758;BME280;74981;52.476;16.656;2023-12-20T09:48:20;99649.17;;;7.39;80.48
84758;BME280;74981;52.476;16.656;2023-12-20T09:50:48;99645.30;;;7.34;80.52
84758;BME280;74981;52.476;16.656;2023-12-20T09:53:15;99641.58;;;7.34;80.74
84758;BME280;74981;52.476;16.656;2023-12-20T09:55:44;99638.71;;;7.34;81.00
84758;BME280;74981;52.476;16.656;2023-12-20T09:58:11;99632.59;;;7.35;80.61
84758;BME280;74981;52.476;16.656;2023-12-20T10:00:38;99631.57;;;7.34;80.88
84758;BME280;74981;52.476;16.656;2023-12-20T10:03:06;99631.46;;;7.31;80.46
84758;BME280;74981;52.476;16.656;2023-12-20T10:05:34;99622.33;;;7.30;80.57
84758;BME280;74981;52.476;16.656;2023-12-20T10:08:01;99618.93;;;7.28;80.22
84758;BME280;74981;52.476;16.656;2023-12-20T10:10:28;99619.45;;;7.22;80.27
84758;BME280;74981;52.476;16.656;2023-12-20T10:13:05;99611.55;;;7.15;80.13
84758;BME280;74981;52.476;16.656;2023-12-20T10:15:33;99595.48;;;7.02;80.18
84758;BME280;74981;52.476;16.656;2023-12-20T10:18:00;99601.23;;;6.96;80.08
84758;BME280;74981;52.476;16.656;2023-12-20T10:20:28;99596.95;;;6.89;80.14
84758;BME280;74981;52.476;16.656;2023-12-20T10:22:55;99596.39;;;6.85;80.34
84758;BME280;74981;52.476;16.656;2023-12-20T10:25:22;99592.95;;;6.81;80.26
84758;BME280;74981;52.476;16.656;2023-12-20T10:27:50;99597.86;;;6.78;80.16
84758;BME280;74981;52.476;16.656;2023-12-20T10:30:17;99594.48;;;6.74;80.32
84758;BME280;74981;52.476;16.656;2023-12-20T10:32:44;99587.39;;;6.69;80.27
84758;BME280;74981;52.476;16.656;2023-12-20T10:35:10;99584.31;;;6.64;80.36
84758;BME280;74981;52.476;16.656;2023-12-20T10:37:37;99579.71;;;6.61;80.50
84758;BME280;74981;52.476;16.656;2023-12-20T10:40:06;99574.30;;;6.58;80.54
84758;BME280;74981;52.476;16.656;2023-12-20T10:42:34;99574.63;;;6.61;80.47
84758;BME280;74981;52.476;16.656;2023-12-20T10:45:02;99569.63;;;6.61;80.44
84758;BME280;74981;52.476;16.656;2023-12-20T10:47:30;99569.63;;;6.59;80.47
84758;BME280;74981;52.476;16.656;2023-12-20T10:49:59;99572.45;;;6.57;80.41
84758;BME280;74981;52.476;16.656;2023-12-20T10:52:28;99569.80;;;6.53;80.70
84758;BME280;74981;52.476;16.656;2023-12-20T10:54:55;99562.36;;;6.48;80.78
84758;BME280;74981;52.476;16.656;2023-12-20T10:57:22;99555.37;;;6.47;80.82
84758;BME280;74981;52.476;16.656;2023-12-20T10:59:52;99554.21;;;6.46;80.85
84758;BME280;74981;52.476;16.656;2023-12-20T11:02:19;99552.21;;;6.46;81.12
84758;BME280;74981;52.476;16.656;2023-12-20T11:04:59;99546.61;;;6.48;81.28
84758;BME280;74981;52.476;16.656;2023-12-20T11:07:33;99546.45;;;6.49;81.46
84758;BME280;74981;52.476;16.656;2023-12-20T11:10:13;99537.29;;;6.50;81.33
84758;BME280;74981;52.476;16.656;2023-12-20T11:12:47;99538.68;;;6.49;81.38
84758;BME280;74981;52.476;16.656;2023-12-20T11:15:16;99533.66;;;6.49;81.48
84758;BME280;74981;52.476;16.656;2023-12-20T11:17:45;99529.81;;;6.52;81.46
84758;BME280;74981;52.476;16.656;2023-12-20T11:20:12;99526.23;;;6.54;81.29
84758;BME280;74981;52.476;16.656;2023-12-20T11:22:51;99527.20;;;6.58;81.32
84758;BME280;74981;52.476;16.656;2023-12-20T11:25:19;99519.47;;;6.59;81.48
84758;BME280;74981;52.476;16.656;2023-12-20T11:28:09;99512.45;;;6.58;81.68
84758;BME280;74981;52.476;16.656;2023-12-20T11:30:43;99514.77;;;6.59;81.57
84758;BME280;74981;52.476;16.656;2023-12-20T11:33:13;99510.67;;;6.60;81.47
84758;BME280;74981;52.476;16.656;2023-12-20T11:35:40;99506.86;;;6.60;81.30
84758;BME280;74981;52.476;16.656;2023-12-20T11:38:09;99501.84;;;6.59;81.62
84758;BME280;74981;52.476;16.656;2023-12-20T11:40:36;99493.23;;;6.60;81.69
84758;BME280;74981;52.476;16.656;2023-12-20T11:43:05;99492.39;;;6.59;81.67
84758;BME280;74981;52.476;16.656;2023-12-20T11:45:32;99488.55;;;6.58;81.58
84758;BME280;74981;52.476;16.656;2023-12-20T11:47:59;99488.73;;;6.58;81.52
84758;BME280;74981;52.476;16.656;2023-12-20T11:50:26;99490.48;;;6.58;81.62
84758;BME280;74981;52.476;16.656;2023-12-20T11:52:53;99487.30;;;6.58;81.71
84758;BME280;74981;52.476;16.656;2023-12-20T11:55:20;99488.30;;;6.57;81.56
84758;BME280;74981;52.476;16.656;2023-12-20T11:57:47;99484.61;;;6.54;81.64
84758;BME280;74981;52.476;16.656;2023-12-20T12:00:15;99473.95;;;6.52;81.84
84758;BME280;74981;52.476;16.656;2023-12-20T12:02:42;99468.79;;;6.52;81.66
84758;BME280;74981;52.476;16.656;2023-12-20T12:05:09;99470.95;;;6.54;81.70
84758;BME280;74981;52.476;16.656;2023-12-20T12:07:36;99463.02;;;6.51;81.38
84758;BME280;74981;52.476;16.656;2023-12-20T12:10:04;99457.92;;;6.48;81.32
84758;BME280;74981;52.476;16.656;2023-12-20T12:12:35;99453.48;;;6.47;81.47
84758;BME280;74981;52.476;16.656;2023-12-20T12:15:03;99450.45;;;6.44;81.50
84758;BME280;74981;52.476;16.656;2023-12-20T12:17:31;99446.13;;;6.47;81.47
84758;BME280;74981;52.476;16.656;2023-12-20T12:20:04;99448.33;;;6.50;81.51
84758;BME280;74981;52.476;16.656;2023-12-20T12:22:31;99442.75;;;6.53;81.39
84758;BME280;74981;52.476;16.656;2023-12-20T12:24:59;99436.30;;;6.54;81.12
84758;BME280;74981;52.476;16.656;2023-12-20T12:27:35;99430.59;;;6.54;81.30
84758;BME280;74981;52.476;16.656;2023-12-20T12:30:03;99426.35;;;6.51;81.15
84758;BME280;74981;52.476;16.656;2023-12-20T12:32:30;99426.27;;;6.48;81.14
84758;BME280;74981;52.476;16.656;2023-12-20T12:34:57;99425.30;;;6.45;80.93
84758;BME280;74981;52.476;16.656;2023-12-20T12:37:24;99423.40;;;6.44;81.03
84758;BME280;74981;52.476;16.656;2023-12-20T12:39:53;99417.56;;;6.48;81.11
84758;BME280;74981;52.476;16.656;2023-12-20T12:42:20;99411.51;;;6.50;81.15
84758;BME280;74981;52.476;16.656;2023-12-20T12:44:47;99409.95;;;6.50;81.06
84758;BME280;74981;52.476;16.656;2023-12-20T12:47:14;99412.11;;;6.46;80.85
84758;BME280;74981;52.476;16.656;2023-12-20T12:49:41;99411.54;;;6.41;80.93
84758;BME280;74981;52.476;16.656;2023-12-20T12:52:08;99412.05;;;6.42;80.89
84758;BME280;74981;52.476;16.656;2023-12-20T12:54:35;99409.34;;;6.42;80.79
84758;BME280;74981;52.476;16.656;2023-12-20T12:57:02;99404.49;;;6.41;80.54
84758;BME280;74981;52.476;16.656;2023-12-20T12:59:29;99404.29;;;6.39;80.49